createdAt,value
2024-01-27T00:00:46.545Z,5.78
2024-01-27T00:05:48.662Z,5.73
2024-01-27T00:10:50.745Z,5.52
2024-01-27T00:15:53.005Z,5.44
2024-01-27T00:20:54.984Z,5.51
2024-01-27T00:25:56.981Z,5.57
2024-01-27T00:30:58.928Z,5.53
2024-01-27T00:36:00.898Z,5.55
2024-01-27T00:41:04.973Z,5.49
2024-01-27T00:46:07.033Z,5.58
2024-01-27T00:51:08.974Z,5.45
2024-01-27T00:56:10.959Z,5.38
2024-01-27T01:01:13.058Z,5.32
2024-01-27T01:06:15.388Z,5.11
2024-01-27T01:11:17.624Z,4.94
2024-01-27T01:16:19.594Z,4.91
2024-01-27T01:21:21.733Z,4.78
2024-01-27T01:26:23.941Z,4.80
2024-01-27T01:31:25.858Z,4.59
2024-01-27T01:36:28.558Z,4.51
2024-01-27T01:41:30.519Z,4.39
2024-01-27T01:46:32.485Z,4.28
2024-01-27T01:51:34.756Z,4.10
2024-01-27T01:56:37.924Z,3.99
2024-01-27T02:01:41.144Z,3.97
2024-01-27T02:06:44.311Z,3.88
2024-01-27T02:11:46.386Z,3.84
2024-01-27T02:16:49.216Z,3.74
2024-01-27T02:21:51.372Z,3.50
2024-01-27T02:26:53.326Z,3.39
2024-01-27T02:31:56.296Z,3.30
2024-01-27T02:36:58.216Z,3.16
2024-01-27T02:42:00.172Z,3.11
2024-01-27T02:47:02.422Z,2.99
2024-01-27T02:52:04.625Z,2.89
2024-01-27T02:57:06.729Z,2.79
2024-01-27T03:02:09.455Z,2.70
2024-01-27T03:07:11.418Z,2.65
2024-01-27T03:12:13.880Z,2.56
2024-01-27T03:17:16.914Z,2.60
2024-01-27T03:22:19.991Z,2.58
2024-01-27T03:27:22.187Z,2.63
2024-01-27T03:32:24.124Z,2.72
2024-01-27T03:37:26.073Z,2.68
2024-01-27T03:42:28.176Z,2.57
2024-01-27T03:47:30.650Z,2.46
2024-01-27T03:52:32.591Z,2.34
2024-01-27T03:57:34.695Z,2.33
2024-01-27T04:02:36.672Z,2.23
2024-01-27T04:07:38.626Z,2.17
2024-01-27T04:12:40.611Z,2.14
2024-01-27T04:17:43.132Z,2.11
2024-01-27T04:22:45.231Z,2.03
2024-01-27T04:27:47.194Z,1.89
2024-01-27T04:32:51.242Z,1.82
2024-01-27T04:37:53.408Z,1.84
2024-01-27T04:42:55.936Z,1.76
2024-01-27T04:47:57.970Z,1.64
2024-01-27T04:52:59.998Z,1.62
2024-01-27T04:58:01.973Z,1.60
2024-01-27T05:03:06.367Z,1.60
2024-01-27T05:08:08.502Z,1.56
2024-01-27T05:13:10.472Z,1.46
2024-01-27T05:18:12.679Z,1.33
2024-01-27T05:23:14.781Z,1.33
2024-01-27T05:28:16.781Z,1.33
2024-01-27T05:33:18.913Z,1.28
2024-01-27T05:38:20.991Z,1.36
2024-01-27T05:43:23.886Z,1.30
2024-01-27T05:48:26.001Z,1.24
2024-01-27T05:53:28.661Z,1.27
2024-01-27T05:58:30.598Z,1.27
2024-01-27T06:03:33.792Z,1.34
2024-01-27T06:08:36.267Z,1.23
2024-01-27T06:13:41.999Z,1.20
2024-01-27T06:18:44.114Z,1.15
2024-01-27T06:23:46.528Z,1.10
2024-01-27T06:28:48.441Z,1.17
2024-01-27T06:33:50.798Z,1.15
2024-01-27T06:38:53.076Z,1.10
2024-01-27T06:43:55.208Z,0.97
2024-01-27T06:48:57.340Z,0.91
2024-01-27T06:53:59.792Z,0.77
2024-01-27T06:59:01.901Z,0.56
2024-01-27T07:04:04.384Z,0.46
2024-01-27T07:09:07.891Z,0.55
2024-01-27T07:14:10.205Z,0.59
2024-01-27T07:19:12.794Z,0.60
2024-01-27T07:24:14.845Z,0.65
2024-01-27T07:29:16.798Z,0.70
2024-01-27T07:34:19.271Z,0.75
2024-01-27T07:39:21.489Z,0.70
2024-01-27T07:44:23.561Z,0.67
2024-01-27T07:49:25.679Z,0.67
2024-01-27T07:54:27.776Z,1.36
2024-01-27T07:59:29.744Z,1.36
2024-01-27T08:04:31.906Z,1.80
2024-01-27T08:09:34.164Z,1.93
2024-01-27T08:14:36.980Z,1.86
2024-01-27T08:19:39.211Z,1.87
2024-01-27T08:24:41.317Z,1.95
2024-01-27T08:29:43.383Z,2.07
2024-01-27T08:34:45.586Z,2.19
2024-01-27T08:39:47.876Z,2.40
2024-01-27T08:44:49.905Z,2.39
2024-01-27T08:49:51.950Z,2.51
2024-01-27T08:54:54.007Z,2.70
2024-01-27T08:59:56.037Z,2.77
2024-01-27T09:04:58.046Z,2.89
2024-01-27T09:10:00.008Z,3.04
2024-01-27T09:15:02.141Z,3.19
2024-01-27T09:20:04.381Z,3.22
2024-01-27T09:25:06.925Z,3.28
2024-01-27T09:30:09.618Z,3.47
2024-01-27T09:35:11.571Z,3.52
2024-01-27T09:40:13.949Z,3.60
2024-01-27T09:45:16.179Z,3.75
2024-01-27T09:50:19.461Z,3.68
2024-01-27T09:55:21.492Z,3.68
2024-01-27T10:00:24.392Z,3.80
2024-01-27T10:05:27.342Z,3.81
2024-01-27T10:10:29.403Z,3.95
2024-01-27T10:15:31.444Z,4.02
2024-01-27T10:20:33.509Z,4.19
2024-01-27T10:25:38.873Z,4.29
2024-01-27T10:30:40.991Z,4.32
2024-01-27T10:35:44.121Z,4.37
2024-01-27T10:40:46.374Z,4.56
2024-01-27T10:45:48.426Z,4.53
2024-01-27T10:50:51.563Z,4.52
2024-01-27T10:55:59.454Z,4.75
2024-01-27T11:01:03.459Z,4.81
2024-01-27T11:06:07.189Z,4.96
2024-01-27T11:11:09.374Z,5.07
2024-01-27T11:16:19.078Z,5.17
2024-01-27T11:21:21.414Z,5.32
2024-01-27T11:26:24.423Z,5.43
2024-01-27T11:31:29.503Z,5.37
2024-01-27T11:36:34.395Z,5.63
2024-01-27T11:41:37.017Z,5.83
2024-01-27T11:46:39.402Z,5.88
2024-01-27T11:51:41.473Z,6.03
2024-01-27T11:56:43.590Z,6.25
2024-01-27T12:01:45.688Z,6.26
2024-01-27T12:06:48.387Z,6.34
2024-01-27T12:11:50.444Z,6.46
2024-01-27T12:16:54.686Z,6.50
2024-01-27T12:21:58.488Z,6.46
2024-01-27T12:27:01.052Z,6.41
2024-01-27T12:32:06.322Z,6.47
2024-01-27T12:37:17.337Z,6.43
2024-01-27T12:42:22.631Z,6.66
2024-01-27T12:47:24.753Z,6.82
2024-01-27T12:52:26.995Z,6.96
2024-01-27T12:57:29.136Z,7.07
2024-01-27T13:02:33.508Z,7.20
2024-01-27T13:07:36.215Z,7.31
2024-01-27T13:12:38.339Z,7.42
2024-01-27T13:17:40.509Z,7.38
2024-01-27T13:22:42.533Z,7.48
2024-01-27T13:27:44.547Z,7.58
2024-01-27T13:32:46.625Z,7.62
2024-01-27T13:37:49.423Z,7.57
2024-01-27T13:42:51.471Z,7.61
2024-01-27T13:47:53.662Z,7.71
2024-01-27T13:52:55.619Z,7.83
2024-01-27T13:57:57.654Z,7.77
2024-01-27T14:02:59.671Z,7.81
2024-01-27T14:08:02.225Z,7.78
2024-01-27T14:13:06.152Z,7.71
2024-01-27T14:18:08.393Z,7.62
2024-01-27T14:23:10.466Z,7.54
2024-01-27T14:28:13.205Z,7.50
2024-01-27T14:33:17.459Z,7.44
2024-01-27T14:38:19.622Z,7.42
2024-01-27T14:43:22.970Z,7.45
2024-01-27T14:48:25.107Z,7.48
2024-01-27T14:53:27.355Z,7.42
2024-01-27T14:58:29.380Z,7.44
2024-01-27T15:03:31.545Z,7.42
2024-01-27T15:08:33.648Z,7.33
2024-01-27T15:13:35.878Z,7.30
2024-01-27T15:18:41.801Z,7.26
2024-01-27T15:23:43.895Z,7.15
2024-01-27T15:28:45.851Z,6.99
2024-01-27T15:33:47.849Z,6.80
2024-01-27T15:38:50.139Z,6.64
2024-01-27T15:43:52.197Z,6.44
2024-01-27T15:48:54.247Z,6.23
2024-01-27T15:53:56.401Z,6.05
2024-01-27T15:58:59.047Z,5.87
2024-01-27T16:04:05.284Z,5.60
2024-01-27T16:09:07.542Z,5.44
2024-01-27T16:14:12.930Z,5.24
2024-01-27T16:19:15.396Z,5.01
2024-01-27T16:24:17.442Z,4.81
2024-01-27T16:29:19.443Z,4.73
2024-01-27T16:34:22.498Z,4.42
2024-01-27T16:39:24.836Z,4.29
2024-01-27T16:44:27.212Z,4.25
2024-01-27T16:49:29.475Z,4.09
2024-01-27T16:54:31.510Z,4.05
2024-01-27T16:59:34.041Z,3.93
2024-01-27T17:04:36.394Z,3.74
2024-01-27T17:09:39.057Z,3.57
2024-01-27T17:14:44.433Z,3.56
2024-01-27T17:19:47.182Z,3.51
2024-01-27T17:24:49.195Z,3.33
2024-01-27T17:29:51.137Z,3.22
2024-01-27T17:34:53.284Z,3.18
2024-01-27T17:39:55.263Z,3.07
2024-01-27T17:44:57.252Z,2.92
2024-01-27T17:49:59.352Z,2.79
2024-01-27T17:55:01.443Z,2.62
2024-01-27T18:00:04.328Z,2.43
2024-01-27T18:05:09.022Z,2.30
2024-01-27T18:10:11.091Z,2.33
2024-01-27T18:15:13.620Z,2.29
2024-01-27T18:20:15.999Z,2.19
2024-01-27T18:25:18.045Z,2.15
2024-01-27T18:30:20.108Z,2.11
2024-01-27T18:35:22.628Z,2.01
2024-01-27T18:40:24.648Z,1.93
2024-01-27T18:45:26.842Z,1.85
2024-01-27T18:50:28.989Z,1.76
2024-01-27T18:55:38.620Z,1.63
2024-01-27T19:00:40.900Z,1.59
2024-01-27T19:05:42.883Z,1.59
2024-01-27T19:10:46.677Z,1.55
2024-01-27T19:15:53.853Z,1.48
2024-01-27T19:20:55.836Z,1.30
2024-01-27T19:25:57.791Z,1.09
2024-01-27T19:31:00.030Z,1.05
2024-01-27T19:36:05.286Z,1.04
2024-01-27T19:41:15.560Z,1.00
2024-01-27T19:46:20.919Z,0.97
2024-01-27T19:51:22.920Z,0.93
2024-01-27T19:56:25.048Z,0.86
2024-01-27T20:01:30.066Z,0.83
2024-01-27T20:06:32.166Z,0.80
2024-01-27T20:11:34.207Z,0.76
2024-01-27T20:16:36.737Z,0.72
2024-01-27T20:21:38.932Z,0.70
2024-01-27T20:26:43.445Z,0.58
2024-01-27T20:31:45.449Z,0.57
2024-01-27T20:36:47.745Z,0.58
2024-01-27T20:41:49.750Z,0.53
2024-01-27T20:46:51.741Z,0.46
2024-01-27T20:51:53.740Z,0.47
2024-01-27T20:56:55.795Z,0.17
2024-01-27T21:02:03.175Z,0.23
2024-01-27T21:07:05.665Z,0.31
2024-01-27T21:12:08.257Z,0.26
2024-01-27T21:17:10.302Z,0.28
2024-01-27T21:22:12.289Z,0.21
2024-01-27T21:27:14.610Z,0.22
2024-01-27T21:32:17.282Z,0.18
2024-01-27T21:37:19.230Z,0.01
2024-01-27T21:42:24.993Z,-0.04
2024-01-27T21:47:27.047Z,0.00
2024-01-27T21:52:29.526Z,-0.00
2024-01-27T21:57:32.555Z,-0.02
2024-01-27T22:02:39.831Z,-0.04
2024-01-27T22:07:43.441Z,-0.05
2024-01-27T22:17:48.209Z,-0.04
2024-01-27T22:22:50.157Z,-0.07
2024-01-27T22:27:52.127Z,-0.14
2024-01-27T22:32:54.219Z,-0.21
2024-01-27T22:37:56.237Z,-0.28
2024-01-27T22:42:58.174Z,-0.27
2024-01-27T22:48:02.916Z,-0.33
2024-01-27T22:53:05.162Z,-0.40
2024-01-27T22:58:07.143Z,-0.46
2024-01-27T23:03:10.610Z,-0.46
2024-01-27T23:08:13.460Z,-0.54
2024-01-27T23:13:18.573Z,-0.62
2024-01-27T23:18:20.845Z,-1.00
2024-01-27T23:23:22.847Z,-0.96
2024-01-27T23:28:24.870Z,-0.82
2024-01-27T23:33:27.145Z,-0.81
2024-01-27T23:38:29.206Z,-0.81
2024-01-27T23:43:31.331Z,-0.91
2024-01-27T23:48:33.444Z,-0.99
2024-01-27T23:53:35.511Z,-0.99
2024-01-27T23:58:37.924Z,-0.92
